Terminal Aerodrome Forecast
Issued by NWS Omaha/Valley, NE

Home | Current Version | Previous Version | Text Only | Print | Product List | Glossary On
Versions: 1 2 3 4 5 6 7 8 9 10 11 12 13 14 15 16 17 18 19 20 21 22 23 24 25 26 27 28 29 30 31 32 33 34 35 36 37 38 39 40 41 42 43 44 45 46
000
FTUS43 KOAX 201000 AAC
TAFOMA
TAF AMD
KOMA 201000Z 2010/2106 17004KT 3SM BR OVC004
      TEMPO 2010/2012 2SM -FZDZ BR
     FM201600 17005KT 4SM BR OVC007
     FM201800 16006KT P6SM OVC012=

USA.gov is the U.S. government's official web portal to all federal, state and local government web resources and services.